createdAt,value
2018-03-25T00:02:03.643Z,91.20
2018-03-25T00:04:31.171Z,91.30
2018-03-25T00:06:58.695Z,91.30
2018-03-25T00:09:26.957Z,92.20
2018-03-25T00:11:54.515Z,92.30
2018-03-25T00:14:22.074Z,92.20
2018-03-25T00:16:50.530Z,91.70
2018-03-25T00:19:18.032Z,92.00
2018-03-25T00:21:45.554Z,91.30
2018-03-25T00:24:13.119Z,91.30
2018-03-25T00:26:40.645Z,91.40
2018-03-25T00:29:08.907Z,91.70
2018-03-25T00:31:36.473Z,91.70
2018-03-25T00:34:04.818Z,92.00
2018-03-25T00:36:32.402Z,92.00
2018-03-25T00:38:59.956Z,91.80
2018-03-25T00:41:27.504Z,91.80
2018-03-25T00:43:55.008Z,92.10
2018-03-25T00:46:22.540Z,91.90
2018-03-25T00:48:50.033Z,91.80
2018-03-25T00:51:17.609Z,92.30
2018-03-25T00:53:45.219Z,91.90
2018-03-25T00:56:12.718Z,91.80
2018-03-25T00:58:40.258Z,91.40
2018-03-25T01:01:12.893Z,91.50
2018-03-25T01:03:41.617Z,91.60
2018-03-25T01:06:09.120Z,91.60
2018-03-25T01:08:36.750Z,91.20
2018-03-25T01:11:05.192Z,91.50
2018-03-25T01:13:32.749Z,91.20
2018-03-25T01:16:10.184Z,91.50
2018-03-25T01:18:37.711Z,92.00
2018-03-25T01:21:07.896Z,91.00
2018-03-25T01:23:35.414Z,91.00
2018-03-25T01:26:02.922Z,91.40
2018-03-25T01:28:30.477Z,91.80
2018-03-25T01:30:58.789Z,91.70
2018-03-25T01:33:26.299Z,91.70
2018-03-25T01:35:53.889Z,92.00
2018-03-25T01:38:21.540Z,91.90
2018-03-25T01:40:49.984Z,91.90
2018-03-25T01:43:18.296Z,91.70
2018-03-25T01:45:45.844Z,91.70
2018-03-25T01:48:14.157Z,92.80
2018-03-25T01:51:01.409Z,92.70
2018-03-25T01:53:28.941Z,92.40
2018-03-25T01:55:56.451Z,92.70
2018-03-25T02:01:03.060Z,92.70
2018-03-25T02:03:33.572Z,91.90
2018-03-25T02:06:01.060Z,91.90
2018-03-25T02:08:28.572Z,92.30
2018-03-25T02:11:00.069Z,92.10
2018-03-25T02:13:28.351Z,91.60
2018-03-25T02:15:56.644Z,91.60
2018-03-25T02:18:24.184Z,91.50
2018-03-25T02:21:09.577Z,91.50
2018-03-25T02:23:37.157Z,91.60
2018-03-25T02:28:43.983Z,91.70
2018-03-25T02:31:11.504Z,91.70
2018-03-25T02:33:39.104Z,91.90
2018-03-25T02:36:25.325Z,92.00
2018-03-25T02:38:52.829Z,92.50
2018-03-25T02:41:21.250Z,92.60
2018-03-25T02:46:28.744Z,93.40
2018-03-25T02:48:57.289Z,94.20
2018-03-25T02:51:25.586Z,93.90
2018-03-25T02:53:54.077Z,93.90
2018-03-25T02:56:21.620Z,93.70
2018-03-25T02:58:50.945Z,93.70
2018-03-25T03:01:18.514Z,93.70
2018-03-25T03:03:47.016Z,94.70
2018-03-25T03:06:14.570Z,94.70
2018-03-25T03:08:42.087Z,95.00
2018-03-25T03:11:09.627Z,94.70
2018-03-25T03:13:37.162Z,94.70
2018-03-25T03:16:04.775Z,94.60
2018-03-25T03:18:32.337Z,96.20
2018-03-25T03:20:59.834Z,95.40
2018-03-25T03:23:29.062Z,95.20
2018-03-25T03:26:14.422Z,95.20
2018-03-25T03:28:43.077Z,95.80
2018-03-25T03:33:49.809Z,96.10
2018-03-25T03:36:19.378Z,97.20
2018-03-25T03:38:46.926Z,97.00
2018-03-25T03:41:14.918Z,96.00
2018-03-25T03:43:42.515Z,95.80
2018-03-25T03:46:10.064Z,95.60
2018-03-25T03:48:38.348Z,96.00
2018-03-25T03:51:07.553Z,94.50
2018-03-25T03:53:35.861Z,94.70
2018-03-25T03:56:03.529Z,94.70
2018-03-25T03:58:31.033Z,95.30
2018-03-25T04:00:58.574Z,95.50
2018-03-25T04:03:26.072Z,96.90
2018-03-25T04:05:53.624Z,97.00
2018-03-25T04:08:21.139Z,98.10
2018-03-25T04:10:48.687Z,97.40
2018-03-25T04:13:16.287Z,98.10
2018-03-25T04:15:43.855Z,98.60
2018-03-25T04:18:11.473Z,99.20
2018-03-25T04:20:39.081Z,98.70
2018-03-25T04:23:06.679Z,98.80
2018-03-25T04:25:34.236Z,97.40
2018-03-25T04:28:02.691Z,97.20
2018-03-25T04:30:30.210Z,97.80
2018-03-25T04:32:58.525Z,98.40
2018-03-25T04:35:26.025Z,98.40
2018-03-25T04:37:53.580Z,97.50
2018-03-25T04:40:21.193Z,96.90
2018-03-25T04:42:48.711Z,96.60
2018-03-25T04:45:16.318Z,96.60
2018-03-25T04:47:44.632Z,96.70
2018-03-25T04:50:12.173Z,96.70
2018-03-25T04:52:41.446Z,96.50
2018-03-25T04:55:09.035Z,96.50
2018-03-25T04:57:37.343Z,96.00
2018-03-25T05:00:04.874Z,96.00
2018-03-25T05:02:33.152Z,96.20
2018-03-25T05:05:01.682Z,96.10
2018-03-25T05:07:29.222Z,97.00
2018-03-25T05:09:56.752Z,97.30
2018-03-25T05:12:24.301Z,97.10
2018-03-25T05:14:51.819Z,96.80
2018-03-25T05:17:19.422Z,96.60
2018-03-25T05:19:47.905Z,96.30
2018-03-25T05:22:15.529Z,97.50
2018-03-25T05:24:43.130Z,98.70
2018-03-25T05:27:10.678Z,98.10
2018-03-25T05:32:34.202Z,97.50
2018-03-25T05:35:01.763Z,97.30
2018-03-25T05:37:30.276Z,96.70
2018-03-25T05:39:58.687Z,96.50
2018-03-25T05:42:26.231Z,96.70
2018-03-25T05:44:53.825Z,97.80
2018-03-25T05:47:21.434Z,96.60
2018-03-25T05:49:48.922Z,95.80
2018-03-25T05:52:17.228Z,95.40
2018-03-25T05:54:44.783Z,95.30
2018-03-25T05:57:12.393Z,95.70
2018-03-25T05:59:39.939Z,95.50
2018-03-25T06:02:07.464Z,96.50
2018-03-25T06:04:36.691Z,95.00
2018-03-25T06:07:04.251Z,95.00
2018-03-25T06:09:31.754Z,94.40
2018-03-25T06:11:59.300Z,94.20
2018-03-25T06:14:26.880Z,94.00
2018-03-25T06:16:54.500Z,94.00
2018-03-25T06:19:22.031Z,94.00
2018-03-25T06:21:49.617Z,94.00
2018-03-25T06:24:17.965Z,94.10
2018-03-25T06:26:45.541Z,94.10
2018-03-25T06:29:13.079Z,94.10
2018-03-25T06:31:40.616Z,94.30
2018-03-25T06:34:08.177Z,94.20
2018-03-25T06:36:35.685Z,93.90
2018-03-25T06:39:04.117Z,94.20
2018-03-25T06:41:31.653Z,93.80
2018-03-25T06:43:59.209Z,93.60
2018-03-25T06:46:26.735Z,93.70
2018-03-25T06:48:54.288Z,94.10
2018-03-25T06:51:21.822Z,94.00
2018-03-25T06:53:50.098Z,93.70
2018-03-25T06:56:17.710Z,93.60
2018-03-25T06:58:45.239Z,94.00
2018-03-25T07:01:14.156Z,94.00
2018-03-25T07:03:41.717Z,94.00
2018-03-25T07:06:09.209Z,93.20
2018-03-25T07:08:36.795Z,93.10
2018-03-25T07:11:04.319Z,92.00
2018-03-25T07:13:31.853Z,92.00
2018-03-25T07:16:00.152Z,91.30
2018-03-25T07:18:29.660Z,91.30
2018-03-25T07:20:57.191Z,91.80
2018-03-25T07:23:25.645Z,90.90
2018-03-25T07:25:53.146Z,90.90
2018-03-25T07:28:21.459Z,90.50
2018-03-25T07:30:48.985Z,90.50
2018-03-25T07:33:16.490Z,88.70
2018-03-25T07:35:44.028Z,86.30
2018-03-25T07:38:12.324Z,84.20
2018-03-25T07:40:42.544Z,82.90
2018-03-25T07:43:10.821Z,84.00
2018-03-25T07:45:39.107Z,82.20
2018-03-25T07:48:07.399Z,82.90
2018-03-25T07:50:34.947Z,82.90
2018-03-25T07:53:03.260Z,87.50
2018-03-25T07:55:30.772Z,87.30
2018-03-25T07:57:59.252Z,89.00
2018-03-25T08:00:26.774Z,88.60
2018-03-25T08:02:54.294Z,90.60
2018-03-25T08:05:21.841Z,90.50
2018-03-25T08:07:49.381Z,90.30
2018-03-25T08:10:16.875Z,90.10
2018-03-25T08:12:44.391Z,90.60
2018-03-25T08:15:11.948Z,89.80
2018-03-25T08:17:40.364Z,89.60
2018-03-25T08:20:07.881Z,90.10
2018-03-25T08:22:35.416Z,90.20
2018-03-25T08:25:02.958Z,90.00
2018-03-25T08:27:30.499Z,86.30
2018-03-25T08:29:57.986Z,86.30
2018-03-25T08:32:25.483Z,86.20
2018-03-25T08:34:53.799Z,88.50
2018-03-25T08:37:23.278Z,88.50
2018-03-25T08:39:50.834Z,88.50
2018-03-25T08:42:18.376Z,87.80
2018-03-25T08:44:46.878Z,88.70
2018-03-25T08:47:14.415Z,86.70
2018-03-25T08:49:41.924Z,87.70
2018-03-25T08:52:09.455Z,86.90
2018-03-25T08:54:37.893Z,86.00
2018-03-25T08:57:05.425Z,90.10
2018-03-25T08:59:32.946Z,90.10
2018-03-25T09:02:00.450Z,89.10
2018-03-25T09:04:28.034Z,89.40
2018-03-25T09:06:55.567Z,87.10
2018-03-25T09:09:24.035Z,88.80
2018-03-25T09:11:51.550Z,90.20
2018-03-25T09:14:21.738Z,86.50
2018-03-25T09:16:49.313Z,86.40
2018-03-25T09:19:16.826Z,86.90
2018-03-25T09:21:44.376Z,87.80
2018-03-25T09:24:13.810Z,87.90
2018-03-25T09:26:41.601Z,87.10
2018-03-25T09:29:09.105Z,83.80
2018-03-25T09:31:37.579Z,82.80
2018-03-25T09:34:05.841Z,79.50
2018-03-25T09:36:34.278Z,79.40
2018-03-25T09:39:04.123Z,82.70
2018-03-25T09:41:34.709Z,82.20
2018-03-25T09:44:02.241Z,80.70
2018-03-25T09:46:29.786Z,83.30
2018-03-25T09:48:58.246Z,81.90
2018-03-25T09:51:27.765Z,82.10
2018-03-25T09:53:55.283Z,81.10
2018-03-25T09:56:24.497Z,80.40
2018-03-25T09:58:53.792Z,84.70
2018-03-25T10:01:27.670Z,83.00
2018-03-25T10:03:55.248Z,83.10
2018-03-25T10:06:22.750Z,84.60
2018-03-25T10:08:50.400Z,85.80
2018-03-25T10:11:18.677Z,79.30
2018-03-25T10:13:46.223Z,79.20
2018-03-25T10:16:14.539Z,84.00
2018-03-25T10:18:42.060Z,83.10
2018-03-25T10:21:09.662Z,82.20
2018-03-25T10:23:37.250Z,81.70
2018-03-25T10:26:04.856Z,82.00
2018-03-25T10:28:32.400Z,84.50
2018-03-25T10:30:59.954Z,83.00
2018-03-25T10:33:27.493Z,81.80
2018-03-25T10:35:54.989Z,81.80
2018-03-25T10:38:22.518Z,80.00
2018-03-25T10:40:50.103Z,80.00
2018-03-25T10:43:17.661Z,77.70
2018-03-25T10:45:45.242Z,80.70
2018-03-25T10:48:12.767Z,78.40
2018-03-25T10:50:41.032Z,75.70
2018-03-25T10:53:09.329Z,74.70
2018-03-25T10:55:37.797Z,74.70
2018-03-25T10:58:05.311Z,76.50
2018-03-25T11:00:32.904Z,77.30
2018-03-25T11:03:00.443Z,74.60
2018-03-25T11:05:27.996Z,77.90
2018-03-25T11:07:55.534Z,76.70
2018-03-25T11:10:25.790Z,71.60
2018-03-25T11:12:53.298Z,71.60
2018-03-25T11:15:21.741Z,76.40
2018-03-25T11:17:50.192Z,72.40
2018-03-25T11:20:19.443Z,67.00
2018-03-25T11:22:46.963Z,67.00
2018-03-25T11:25:15.310Z,71.10
2018-03-25T11:27:42.839Z,70.70
2018-03-25T11:30:11.246Z,65.80
2018-03-25T11:32:38.783Z,65.50
2018-03-25T11:35:07.283Z,66.90
2018-03-25T11:37:34.815Z,67.80
2018-03-25T11:40:02.339Z,67.80
2018-03-25T11:42:29.831Z,68.20
2018-03-25T11:44:58.127Z,63.80
2018-03-25T11:47:25.658Z,64.20
2018-03-25T11:49:53.226Z,62.10
2018-03-25T11:52:22.412Z,63.30
2018-03-25T11:54:50.399Z,63.50
2018-03-25T11:57:17.939Z,61.60
2018-03-25T11:59:45.515Z,61.80
2018-03-25T12:02:13.103Z,63.10
2018-03-25T12:04:41.411Z,63.00
2018-03-25T12:07:08.975Z,63.20
2018-03-25T12:09:36.519Z,60.60
2018-03-25T12:12:04.830Z,61.10
2018-03-25T12:14:32.407Z,61.00
2018-03-25T12:16:59.927Z,58.70
2018-03-25T12:19:28.209Z,62.00
2018-03-25T12:21:56.501Z,62.40
2018-03-25T12:24:25.724Z,64.50
2018-03-25T12:26:53.237Z,63.90
2018-03-25T12:29:21.092Z,64.50
2018-03-25T12:31:48.632Z,64.20
2018-03-25T12:34:16.178Z,63.30
2018-03-25T12:36:43.736Z,65.40
2018-03-25T12:39:11.228Z,65.00
2018-03-25T12:41:38.730Z,65.00
2018-03-25T12:44:06.280Z,63.10
2018-03-25T12:46:34.755Z,62.80
2018-03-25T12:49:02.311Z,63.80
2018-03-25T12:51:29.835Z,63.80
2018-03-25T12:53:57.358Z,61.90
2018-03-25T12:56:28.964Z,65.20
2018-03-25T12:58:58.423Z,61.90
2018-03-25T13:01:25.927Z,61.70
2018-03-25T13:03:53.509Z,61.30
2018-03-25T13:06:22.003Z,62.70
2018-03-25T13:08:49.525Z,64.60
2018-03-25T13:11:17.819Z,61.90
2018-03-25T13:13:47.004Z,65.00
2018-03-25T13:16:14.544Z,65.10
2018-03-25T13:18:42.115Z,61.00
2018-03-25T13:21:09.628Z,60.10
2018-03-25T13:23:37.188Z,61.20
2018-03-25T13:26:04.770Z,61.30
2018-03-25T13:28:32.288Z,61.30
2018-03-25T13:31:00.592Z,60.00
2018-03-25T13:33:47.744Z,62.80
2018-03-25T13:38:54.418Z,59.70
2018-03-25T13:41:22.269Z,61.10
2018-03-25T13:43:49.877Z,61.90
2018-03-25T13:46:19.329Z,60.50
2018-03-25T13:48:47.601Z,59.70
2018-03-25T13:51:16.813Z,60.70
2018-03-25T13:53:45.086Z,60.60
2018-03-25T13:56:12.692Z,60.90
2018-03-25T13:58:40.284Z,59.00
2018-03-25T14:01:08.728Z,58.60
2018-03-25T14:03:36.277Z,59.00
2018-03-25T14:06:04.563Z,58.00
2018-03-25T14:08:32.877Z,59.40
2018-03-25T14:11:01.328Z,59.40
2018-03-25T14:13:29.615Z,58.60
2018-03-25T14:15:57.230Z,58.70
2018-03-25T14:18:24.736Z,57.60
2018-03-25T14:20:53.970Z,60.40
2018-03-25T14:23:22.474Z,60.30
2018-03-25T14:25:51.021Z,56.10
2018-03-25T14:28:19.344Z,58.50
2018-03-25T14:30:47.813Z,58.60
2018-03-25T14:33:15.321Z,60.90
2018-03-25T14:35:42.853Z,60.20
2018-03-25T14:38:11.166Z,58.70
2018-03-25T14:40:38.728Z,60.50
2018-03-25T14:43:06.246Z,59.30
2018-03-25T14:45:33.874Z,60.40
2018-03-25T14:48:02.185Z,59.50
2018-03-25T14:50:30.503Z,57.80
2018-03-25T14:52:58.956Z,57.90
2018-03-25T14:55:26.499Z,57.90
2018-03-25T14:57:55.828Z,58.00
2018-03-25T15:00:23.350Z,58.10
2018-03-25T15:02:51.052Z,59.10
2018-03-25T15:05:18.554Z,57.80
2018-03-25T15:10:44.619Z,57.40
2018-03-25T15:13:12.148Z,57.40
2018-03-25T15:15:41.309Z,58.90
2018-03-25T15:18:08.867Z,59.10
2018-03-25T15:20:37.185Z,60.00
2018-03-25T15:23:04.755Z,60.00
2018-03-25T15:25:33.251Z,59.60
2018-03-25T15:28:00.790Z,58.60
2018-03-25T15:30:28.401Z,58.80
2018-03-25T15:32:55.961Z,60.60
2018-03-25T15:35:23.561Z,61.70
2018-03-25T15:37:51.141Z,57.70
2018-03-25T15:40:18.739Z,59.20
2018-03-25T15:42:46.302Z,58.60
2018-03-25T15:45:14.614Z,57.10
2018-03-25T15:47:42.156Z,57.10
2018-03-25T15:50:09.711Z,59.30
2018-03-25T15:52:37.243Z,57.60
2018-03-25T15:55:04.843Z,57.80
2018-03-25T15:57:32.412Z,58.10
2018-03-25T16:00:00.858Z,59.00
2018-03-25T16:02:28.438Z,59.20
2018-03-25T16:04:55.931Z,58.20
2018-03-25T16:07:24.964Z,59.00
2018-03-25T16:09:53.231Z,60.10
2018-03-25T16:12:20.795Z,60.00
2018-03-25T16:14:48.309Z,57.40
2018-03-25T16:17:15.968Z,59.70
2018-03-25T16:19:43.488Z,58.10
2018-03-25T16:22:11.064Z,56.70
2018-03-25T16:24:40.389Z,56.90
2018-03-25T16:27:08.906Z,56.80
2018-03-25T16:29:36.534Z,58.00
2018-03-25T16:32:04.111Z,57.80
2018-03-25T16:34:31.681Z,59.40
2018-03-25T16:36:59.193Z,59.20
2018-03-25T16:39:26.712Z,58.90
2018-03-25T16:42:13.936Z,58.30
2018-03-25T16:44:41.587Z,58.30
2018-03-25T16:47:09.167Z,58.70
2018-03-25T16:49:36.757Z,60.00
2018-03-25T16:52:06.059Z,60.00
2018-03-25T16:57:13.343Z,60.00
2018-03-25T16:59:40.838Z,60.30
2018-03-25T17:02:08.440Z,61.00
2018-03-25T17:04:36.698Z,61.80
2018-03-25T17:07:04.209Z,61.70
2018-03-25T17:09:31.741Z,62.70
2018-03-25T17:12:00.079Z,64.30
2018-03-25T17:14:27.613Z,64.30
2018-03-25T17:16:56.047Z,64.20
2018-03-25T17:19:24.568Z,66.10
2018-03-25T17:21:52.185Z,65.90
2018-03-25T17:24:19.727Z,65.20
2018-03-25T17:26:47.278Z,65.40
2018-03-25T17:29:14.790Z,66.70
2018-03-25T17:31:43.249Z,67.00
2018-03-25T17:34:10.793Z,67.50
2018-03-25T17:36:38.391Z,66.70
2018-03-25T17:39:05.903Z,67.00
2018-03-25T17:41:35.370Z,68.00
2018-03-25T17:44:03.031Z,68.30
2018-03-25T17:46:30.582Z,68.50
2018-03-25T17:48:58.105Z,68.90
2018-03-25T17:51:26.413Z,70.80
2018-03-25T17:53:53.909Z,70.80
2018-03-25T17:56:21.440Z,71.50
2018-03-25T17:58:50.976Z,72.20
2018-03-25T18:01:18.512Z,72.60
2018-03-25T18:03:46.974Z,73.60
2018-03-25T18:06:15.384Z,75.70
2018-03-25T18:08:46.161Z,76.90
2018-03-25T18:11:13.755Z,76.00
2018-03-25T18:13:42.153Z,76.80
2018-03-25T18:16:09.707Z,76.70
2018-03-25T18:18:37.985Z,77.30
2018-03-25T18:21:06.440Z,77.30
2018-03-25T18:23:33.966Z,78.10
2018-03-25T18:26:01.581Z,78.60
2018-03-25T18:28:29.075Z,78.80
2018-03-25T18:30:56.584Z,79.20
2018-03-25T18:33:25.098Z,79.40
2018-03-25T18:35:52.661Z,78.90
2018-03-25T18:38:22.094Z,79.00
2018-03-25T18:40:49.644Z,79.00
2018-03-25T18:43:17.916Z,79.80
2018-03-25T18:45:45.454Z,79.80
2018-03-25T18:48:12.937Z,79.50
2018-03-25T18:50:41.355Z,79.80
2018-03-25T18:53:08.936Z,79.90
2018-03-25T18:55:36.467Z,80.30
2018-03-25T18:58:04.740Z,80.30
2018-03-25T19:00:32.310Z,80.30
2018-03-25T19:03:02.530Z,80.10
2018-03-25T19:05:30.846Z,79.90
2018-03-25T19:07:58.399Z,80.00
2018-03-25T19:10:25.911Z,79.50
2018-03-25T19:12:53.461Z,79.50
2018-03-25T19:15:21.575Z,79.50
2018-03-25T19:17:49.127Z,79.50
2018-03-25T19:20:16.685Z,80.00
2018-03-25T19:25:40.219Z,79.40
2018-03-25T19:28:08.322Z,79.30
2018-03-25T19:30:35.878Z,80.00
2018-03-25T19:33:03.453Z,79.80
2018-03-25T19:35:33.036Z,80.70
2018-03-25T19:38:00.569Z,80.70
2018-03-25T19:40:29.124Z,81.40
2018-03-25T19:42:57.573Z,80.80
2018-03-25T19:45:26.022Z,81.40
2018-03-25T19:47:54.318Z,80.60
2018-03-25T19:50:22.622Z,80.80
2018-03-25T19:52:51.474Z,80.80
2018-03-25T19:55:18.975Z,81.20
2018-03-25T19:57:47.458Z,80.80
2018-03-25T20:00:14.997Z,80.10
2018-03-25T20:02:42.588Z,80.00
2018-03-25T20:05:10.121Z,78.70
2018-03-25T20:07:39.686Z,78.70
2018-03-25T20:10:07.284Z,78.70
2018-03-25T20:12:35.002Z,79.60
2018-03-25T20:15:02.502Z,79.40
2018-03-25T20:17:31.027Z,78.80
2018-03-25T20:20:00.581Z,78.40
2018-03-25T20:22:28.170Z,78.50
2018-03-25T20:24:55.742Z,78.60
2018-03-25T20:27:41.922Z,77.80
2018-03-25T20:30:09.490Z,79.10
2018-03-25T20:32:37.081Z,78.40
2018-03-25T20:35:05.532Z,78.70
2018-03-25T20:37:33.977Z,77.80
2018-03-25T20:43:04.697Z,78.90
2018-03-25T20:45:33.277Z,79.50
2018-03-25T20:48:00.800Z,79.50
2018-03-25T20:50:28.318Z,78.80
2018-03-25T20:52:56.610Z,79.30
2018-03-25T20:55:24.874Z,80.40
2018-03-25T20:57:53.168Z,80.50
2018-03-25T21:00:20.727Z,80.50
2018-03-25T21:02:49.979Z,80.10
2018-03-25T21:05:19.449Z,80.10
2018-03-25T21:07:46.959Z,80.90
2018-03-25T21:10:16.410Z,80.30
2018-03-25T21:12:45.608Z,79.70
2018-03-25T21:15:13.908Z,80.50
2018-03-25T21:17:41.415Z,81.40
2018-03-25T21:20:09.881Z,80.60
2018-03-25T21:22:37.399Z,80.80
2018-03-25T21:25:05.699Z,79.20
2018-03-25T21:27:33.209Z,79.20
2018-03-25T21:30:00.748Z,79.30
2018-03-25T21:32:28.240Z,79.80
2018-03-25T21:34:56.764Z,79.20
2018-03-25T21:37:25.074Z,79.40
2018-03-25T21:39:52.676Z,79.50
2018-03-25T21:42:20.195Z,79.70
2018-03-25T21:44:48.665Z,78.70
2018-03-25T21:47:16.193Z,78.10
2018-03-25T21:49:45.690Z,78.30
2018-03-25T21:52:13.248Z,78.00
2018-03-25T21:54:40.752Z,78.10
2018-03-25T21:57:09.036Z,78.80
2018-03-25T21:59:37.349Z,79.20
2018-03-25T22:02:04.921Z,79.20
2018-03-25T22:04:33.456Z,79.30
2018-03-25T22:07:00.989Z,79.80
2018-03-25T22:09:30.405Z,79.80
2018-03-25T22:11:58.897Z,79.30
2018-03-25T22:14:27.342Z,79.60
2018-03-25T22:16:55.875Z,80.30
2018-03-25T22:19:23.414Z,80.50
2018-03-25T22:21:50.939Z,81.40
2018-03-25T22:24:18.487Z,81.00
2018-03-25T22:26:46.826Z,81.20
2018-03-25T22:29:14.409Z,81.20
2018-03-25T22:31:41.945Z,80.50
2018-03-25T22:34:11.346Z,81.30
2018-03-25T22:36:38.888Z,81.20
2018-03-25T22:39:07.401Z,81.30
2018-03-25T22:41:34.900Z,81.00
2018-03-25T22:44:02.486Z,81.00
2018-03-25T22:46:30.847Z,80.50
2018-03-25T22:48:59.307Z,80.50
2018-03-25T22:51:26.817Z,80.40
2018-03-25T22:53:55.770Z,79.50
2018-03-25T22:56:23.273Z,79.50
2018-03-25T22:58:51.607Z,80.20
2018-03-25T23:01:21.029Z,80.10
2018-03-25T23:03:49.666Z,80.90
2018-03-25T23:06:20.112Z,81.20
2018-03-25T23:08:47.662Z,81.00
2018-03-25T23:11:15.161Z,81.50
2018-03-25T23:13:42.666Z,81.60
2018-03-25T23:16:10.209Z,81.70
2018-03-25T23:18:37.703Z,83.30
2018-03-25T23:21:05.962Z,83.30
2018-03-25T23:23:35.490Z,83.30
2018-03-25T23:26:03.806Z,82.50
2018-03-25T23:28:31.372Z,82.40
2018-03-25T23:30:58.986Z,83.20
2018-03-25T23:33:28.442Z,82.80
2018-03-25T23:35:56.975Z,83.20
2018-03-25T23:38:25.429Z,82.30
2018-03-25T23:40:53.881Z,83.00
2018-03-25T23:43:21.463Z,83.20
2018-03-25T23:45:48.960Z,82.20
2018-03-25T23:48:16.458Z,81.70
2018-03-25T23:50:44.752Z,81.90
2018-03-25T23:53:13.024Z,82.00
2018-03-25T23:55:41.288Z,81.70
2018-03-25T23:58:08.805Z,81.60
